sensor_id;sensor_type;location;lat;lon;timestamp;temperature;humidity
15452;DHT22;7827;53.594;9.938;2023-03-01T00:01:47;0.80;99.90
15452;DHT22;7827;53.594;9.938;2023-03-01T00:04:15;0.90;99.90
15452;DHT22;7827;53.594;9.938;2023-03-01T00:06:44;0.90;99.90
15452;DHT22;7827;53.594;9.938;2023-03-01T00:09:13;0.90;99.90
15452;DHT22;7827;53.594;9.938;2023-03-01T00:11:42;0.90;99.90
15452;DHT22;7827;53.594;9.938;2023-03-01T00:14:11;0.90;99.90
15452;DHT22;7827;53.594;9.938;2023-03-01T00:16:50;0.90;99.90
15452;DHT22;7827;53.594;9.938;2023-03-01T00:19:19;0.90;99.90
15452;DHT22;7827;53.594;9.938;2023-03-01T00:21:48;0.90;99.90
15452;DHT22;7827;53.594;9.938;2023-03-01T00:24:17;0.80;99.90
15452;DHT22;7827;53.594;9.938;2023-03-01T00:26:45;0.80;99.90
15452;DHT22;7827;53.594;9.938;2023-03-01T00:29:14;0.80;99.90
15452;DHT22;7827;53.594;9.938;2023-03-01T00:31:42;0.70;99.90
15452;DHT22;7827;53.594;9.938;2023-03-01T00:34:12;0.70;99.90
15452;DHT22;7827;53.594;9.938;2023-03-01T00:36:40;0.70;99.90
15452;DHT22;7827;53.594;9.938;2023-03-01T00:39:11;0.70;99.90
15452;DHT22;7827;53.594;9.938;2023-03-01T00:41:41;0.70;99.90
15452;DHT22;7827;53.594;9.938;2023-03-01T00:44:10;0.70;99.90
15452;DHT22;7827;53.594;9.938;2023-03-01T00:46:39;0.70;99.90
15452;DHT22;7827;53.594;9.938;2023-03-01T00:49:07;0.70;99.90
15452;DHT22;7827;53.594;9.938;2023-03-01T00:51:37;0.70;99.90
15452;DHT22;7827;53.594;9.938;2023-03-01T00:54:08;0.70;99.90
15452;DHT22;7827;53.594;9.938;2023-03-01T00:56:37;0.60;99.90
15452;DHT22;7827;53.594;9.938;2023-03-01T00:59:05;0.60;99.90
15452;DHT22;7827;53.594;9.938;2023-03-01T01:01:33;0.70;99.90
15452;DHT22;7827;53.594;9.938;2023-03-01T01:04:05;0.60;99.90
15452;DHT22;7827;53.594;9.938;2023-03-01T01:06:40;0.60;99.90
15452;DHT22;7827;53.594;9.938;2023-03-01T01:09:12;0.60;99.90
15452;DHT22;7827;53.594;9.938;2023-03-01T01:11:45;0.60;99.90
15452;DHT22;7827;53.594;9.938;2023-03-01T01:14:16;0.60;99.90
15452;DHT22;7827;53.594;9.938;2023-03-01T01:16:45;0.60;99.90
15452;DHT22;7827;53.594;9.938;2023-03-01T01:19:13;0.50;99.90
15452;DHT22;7827;53.594;9.938;2023-03-01T01:21:43;0.50;99.90
15452;DHT22;7827;53.594;9.938;2023-03-01T01:24:12;0.50;99.90
15452;DHT22;7827;53.594;9.938;2023-03-01T01:26:40;0.50;99.90
15452;DHT22;7827;53.594;9.938;2023-03-01T01:29:10;0.50;99.90
15452;DHT22;7827;53.594;9.938;2023-03-01T01:31:40;0.60;99.90
15452;DHT22;7827;53.594;9.938;2023-03-01T01:34:13;0.40;99.90
15452;DHT22;7827;53.594;9.938;2023-03-01T01:36:48;0.50;99.90
15452;DHT22;7827;53.594;9.938;2023-03-01T01:39:17;0.50;99.90
15452;DHT22;7827;53.594;9.938;2023-03-01T01:41:46;0.50;99.90
15452;DHT22;7827;53.594;9.938;2023-03-01T01:44:17;0.50;99.90
15452;DHT22;7827;53.594;9.938;2023-03-01T01:46:49;0.50;99.90
15452;DHT22;7827;53.594;9.938;2023-03-01T01:49:29;0.50;99.90
15452;DHT22;7827;53.594;9.938;2023-03-01T01:52:07;0.40;99.90
15452;DHT22;7827;53.594;9.938;2023-03-01T01:54:43;0.40;99.90
15452;DHT22;7827;53.594;9.938;2023-03-01T01:57:18;0.40;99.90
15452;DHT22;7827;53.594;9.938;2023-03-01T01:59:51;0.30;99.90
15452;DHT22;7827;53.594;9.938;2023-03-01T02:02:22;0.30;99.90
15452;DHT22;7827;53.594;9.938;2023-03-01T02:04:56;0.30;99.90
15452;DHT22;7827;53.594;9.938;2023-03-01T02:07:32;0.40;99.90
15452;DHT22;7827;53.594;9.938;2023-03-01T02:10:02;0.40;99.90
15452;DHT22;7827;53.594;9.938;2023-03-01T02:12:30;0.40;99.90
15452;DHT22;7827;53.594;9.938;2023-03-01T02:14:59;0.40;99.90
15452;DHT22;7827;53.594;9.938;2023-03-01T02:17:27;0.40;99.90
15452;DHT22;7827;53.594;9.938;2023-03-01T02:20:06;0.40;99.90
15452;DHT22;7827;53.594;9.938;2023-03-01T02:22:46;0.40;99.90
15452;DHT22;7827;53.594;9.938;2023-03-01T02:25:26;0.40;99.90
15452;DHT22;7827;53.594;9.938;2023-03-01T02:28:05;0.40;99.90
15452;DHT22;7827;53.594;9.938;2023-03-01T02:30:40;0.40;99.90
15452;DHT22;7827;53.594;9.938;2023-03-01T02:33:31;0.40;99.90
15452;DHT22;7827;53.594;9.938;2023-03-01T02:36:01;0.30;99.90
15452;DHT22;7827;53.594;9.938;2023-03-01T02:38:32;0.40;99.90
15452;DHT22;7827;53.594;9.938;2023-03-01T02:41:03;0.60;99.90
15452;DHT22;7827;53.594;9.938;2023-03-01T02:43:35;0.50;99.90
15452;DHT22;7827;53.594;9.938;2023-03-01T02:46:07;0.50;99.90
15452;DHT22;7827;53.594;9.938;2023-03-01T02:48:43;0.50;99.90
15452;DHT22;7827;53.594;9.938;2023-03-01T02:51:28;0.50;99.90
15452;DHT22;7827;53.594;9.938;2023-03-01T02:54:12;0.50;99.90
15452;DHT22;7827;53.594;9.938;2023-03-01T02:56:48;0.40;99.90
15452;DHT22;7827;53.594;9.938;2023-03-01T02:59:21;0.40;99.90
15452;DHT22;7827;53.594;9.938;2023-03-01T03:01:53;0.40;99.90
15452;DHT22;7827;53.594;9.938;2023-03-01T03:04:22;0.50;99.90
15452;DHT22;7827;53.594;9.938;2023-03-01T03:06:51;0.50;99.90
15452;DHT22;7827;53.594;9.938;2023-03-01T03:09:19;0.50;99.90
15452;DHT22;7827;53.594;9.938;2023-03-01T03:11:48;0.50;99.90
15452;DHT22;7827;53.594;9.938;2023-03-01T03:14:17;0.50;99.90
15452;DHT22;7827;53.594;9.938;2023-03-01T03:16:48;0.50;99.90
15452;DHT22;7827;53.594;9.938;2023-03-01T03:19:19;0.50;99.90
15452;DHT22;7827;53.594;9.938;2023-03-01T03:21:47;0.50;99.90
15452;DHT22;7827;53.594;9.938;2023-03-01T03:24:16;0.50;99.90
15452;DHT22;7827;53.594;9.938;2023-03-01T03:26:45;0.50;99.90
15452;DHT22;7827;53.594;9.938;2023-03-01T03:29:13;0.50;99.90
15452;DHT22;7827;53.594;9.938;2023-03-01T03:31:41;0.50;99.90
15452;DHT22;7827;53.594;9.938;2023-03-01T03:34:10;0.50;99.90
15452;DHT22;7827;53.594;9.938;2023-03-01T03:36:46;0.50;99.90
15452;DHT22;7827;53.594;9.938;2023-03-01T03:39:14;0.50;99.90
15452;DHT22;7827;53.594;9.938;2023-03-01T03:41:45;0.50;99.90
15452;DHT22;7827;53.594;9.938;2023-03-01T03:44:13;0.50;99.90
15452;DHT22;7827;53.594;9.938;2023-03-01T03:46:42;0.60;99.90
15452;DHT22;7827;53.594;9.938;2023-03-01T03:49:10;0.60;99.90
15452;DHT22;7827;53.594;9.938;2023-03-01T03:51:38;0.60;99.90
15452;DHT22;7827;53.594;9.938;2023-03-01T03:54:08;0.70;99.90
15452;DHT22;7827;53.594;9.938;2023-03-01T03:56:37;0.70;99.90
15452;DHT22;7827;53.594;9.938;2023-03-01T03:59:06;0.80;99.90
15452;DHT22;7827;53.594;9.938;2023-03-01T04:01:38;0.90;99.90
15452;DHT22;7827;53.594;9.938;2023-03-01T04:04:06;0.90;99.90
15452;DHT22;7827;53.594;9.938;2023-03-01T04:06:34;0.90;99.90
15452;DHT22;7827;53.594;9.938;2023-03-01T04:09:03;0.90;99.90
15452;DHT22;7827;53.594;9.938;2023-03-01T04:11:32;1.00;99.90
15452;DHT22;7827;53.594;9.938;2023-03-01T04:14:01;1.00;99.90
15452;DHT22;7827;53.594;9.938;2023-03-01T04:16:31;1.00;99.90
15452;DHT22;7827;53.594;9.938;2023-03-01T04:19:00;1.10;99.90
15452;DHT22;7827;53.594;9.938;2023-03-01T04:21:28;1.10;99.90
15452;DHT22;7827;53.594;9.938;2023-03-01T04:23:56;1.20;99.90
15452;DHT22;7827;53.594;9.938;2023-03-01T04:26:24;1.10;99.90
15452;DHT22;7827;53.594;9.938;2023-03-01T04:28:55;1.10;99.90
15452;DHT22;7827;53.594;9.938;2023-03-01T04:31:23;1.10;99.90
15452;DHT22;7827;53.594;9.938;2023-03-01T04:33:53;1.20;99.90
15452;DHT22;7827;53.594;9.938;2023-03-01T04:36:25;1.20;99.90
15452;DHT22;7827;53.594;9.938;2023-03-01T04:38:57;1.20;99.90
15452;DHT22;7827;53.594;9.938;2023-03-01T04:41:25;1.30;99.90
15452;DHT22;7827;53.594;9.938;2023-03-01T04:43:55;1.40;99.90
15452;DHT22;7827;53.594;9.938;2023-03-01T04:46:26;1.50;99.90
15452;DHT22;7827;53.594;9.938;2023-03-01T04:48:56;1.40;99.90
15452;DHT22;7827;53.594;9.938;2023-03-01T04:51:24;1.30;99.90
15452;DHT22;7827;53.594;9.938;2023-03-01T04:53:52;1.30;99.90
15452;DHT22;7827;53.594;9.938;2023-03-01T04:56:21;1.30;99.90
15452;DHT22;7827;53.594;9.938;2023-03-01T04:58:49;1.30;99.90
15452;DHT22;7827;53.594;9.938;2023-03-01T05:01:22;1.30;99.90
15452;DHT22;7827;53.594;9.938;2023-03-01T05:03:51;1.30;99.90
15452;DHT22;7827;53.594;9.938;2023-03-01T05:06:20;1.30;99.90
15452;DHT22;7827;53.594;9.938;2023-03-01T05:08:49;1.40;99.90
15452;DHT22;7827;53.594;9.938;2023-03-01T05:11:17;1.40;99.90
15452;DHT22;7827;53.594;9.938;2023-03-01T05:13:45;1.50;99.90
15452;DHT22;7827;53.594;9.938;2023-03-01T05:16:13;1.40;99.90
15452;DHT22;7827;53.594;9.938;2023-03-01T05:18:45;1.40;99.90
15452;DHT22;7827;53.594;9.938;2023-03-01T05:21:14;1.40;99.90
15452;DHT22;7827;53.594;9.938;2023-03-01T05:23:43;1.30;99.90
15452;DHT22;7827;53.594;9.938;2023-03-01T05:26:14;1.30;99.90
15452;DHT22;7827;53.594;9.938;2023-03-01T05:28:59;1.40;99.90
15452;DHT22;7827;53.594;9.938;2023-03-01T05:31:28;1.40;99.90
15452;DHT22;7827;53.594;9.938;2023-03-01T05:33:59;1.40;99.90
15452;DHT22;7827;53.594;9.938;2023-03-01T05:36:28;1.40;99.90
15452;DHT22;7827;53.594;9.938;2023-03-01T05:38:57;1.40;99.90
15452;DHT22;7827;53.594;9.938;2023-03-01T05:41:25;1.40;99.90
15452;DHT22;7827;53.594;9.938;2023-03-01T05:43:53;1.40;99.90
15452;DHT22;7827;53.594;9.938;2023-03-01T05:46:22;1.50;99.90
15452;DHT22;7827;53.594;9.938;2023-03-01T05:48:51;1.60;99.90
15452;DHT22;7827;53.594;9.938;2023-03-01T05:51:20;1.60;99.90
15452;DHT22;7827;53.594;9.938;2023-03-01T05:53:49;1.70;99.90
15452;DHT22;7827;53.594;9.938;2023-03-01T05:56:17;1.80;99.90
15452;DHT22;7827;53.594;9.938;2023-03-01T05:58:47;1.70;99.90
15452;DHT22;7827;53.594;9.938;2023-03-01T06:01:16;1.60;99.90
15452;DHT22;7827;53.594;9.938;2023-03-01T06:03:44;1.60;99.90
15452;DHT22;7827;53.594;9.938;2023-03-01T06:06:12;1.60;99.90
15452;DHT22;7827;53.594;9.938;2023-03-01T06:08:42;1.60;99.90
15452;DHT22;7827;53.594;9.938;2023-03-01T06:11:10;1.70;99.90
15452;DHT22;7827;53.594;9.938;2023-03-01T06:13:38;1.80;99.90
15452;DHT22;7827;53.594;9.938;2023-03-01T06:16:07;1.80;99.90
15452;DHT22;7827;53.594;9.938;2023-03-01T06:18:37;1.80;99.90
15452;DHT22;7827;53.594;9.938;2023-03-01T06:21:06;1.80;99.90
15452;DHT22;7827;53.594;9.938;2023-03-01T06:23:35;1.70;99.90
15452;DHT22;7827;53.594;9.938;2023-03-01T06:26:07;1.60;99.90
15452;DHT22;7827;53.594;9.938;2023-03-01T06:28:36;1.60;99.90
15452;DHT22;7827;53.594;9.938;2023-03-01T06:31:04;1.60;99.90
15452;DHT22;7827;53.594;9.938;2023-03-01T06:33:35;1.70;99.90
15452;DHT22;7827;53.594;9.938;2023-03-01T06:36:04;1.70;99.90
15452;DHT22;7827;53.594;9.938;2023-03-01T06:38:33;1.70;99.90
15452;DHT22;7827;53.594;9.938;2023-03-01T06:41:02;1.60;99.90
15452;DHT22;7827;53.594;9.938;2023-03-01T06:43:31;1.70;99.90
15452;DHT22;7827;53.594;9.938;2023-03-01T06:46:00;1.90;99.90
15452;DHT22;7827;53.594;9.938;2023-03-01T06:48:31;2.10;99.90
15452;DHT22;7827;53.594;9.938;2023-03-01T06:51:00;2.30;99.90
15452;DHT22;7827;53.594;9.938;2023-03-01T06:53:29;2.30;99.90
15452;DHT22;7827;53.594;9.938;2023-03-01T06:55:57;2.40;99.90
15452;DHT22;7827;53.594;9.938;2023-03-01T06:58:26;2.70;99.90
15452;DHT22;7827;53.594;9.938;2023-03-01T07:00:56;2.90;99.90
15452;DHT22;7827;53.594;9.938;2023-03-01T07:03:24;2.90;99.90
15452;DHT22;7827;53.594;9.938;2023-03-01T07:05:53;2.90;99.90
15452;DHT22;7827;53.594;9.938;2023-03-01T07:08:22;2.90;99.90
15452;DHT22;7827;53.594;9.938;2023-03-01T07:10:55;3.00;99.90
15452;DHT22;7827;53.594;9.938;2023-03-01T07:13:23;3.00;99.90
15452;DHT22;7827;53.594;9.938;2023-03-01T07:15:52;2.90;99.90
15452;DHT22;7827;53.594;9.938;2023-03-01T07:18:22;2.90;99.90
15452;DHT22;7827;53.594;9.938;2023-03-01T07:20:50;2.90;99.90
15452;DHT22;7827;53.594;9.938;2023-03-01T07:23:18;2.90;99.90
15452;DHT22;7827;53.594;9.938;2023-03-01T07:25:52;2.90;99.90
15452;DHT22;7827;53.594;9.938;2023-03-01T07:28:22;2.90;99.90
15452;DHT22;7827;53.594;9.938;2023-03-01T07:30:50;2.90;99.90
15452;DHT22;7827;53.594;9.938;2023-03-01T07:33:19;2.90;99.90
15452;DHT22;7827;53.594;9.938;2023-03-01T07:35:55;2.90;99.90
15452;DHT22;7827;53.594;9.938;2023-03-01T07:38:26;2.80;99.90
15452;DHT22;7827;53.594;9.938;2023-03-01T07:40:58;2.90;99.90
15452;DHT22;7827;53.594;9.938;2023-03-01T07:43:28;2.80;99.90
15452;DHT22;7827;53.594;9.938;2023-03-01T07:45:58;2.90;99.90
15452;DHT22;7827;53.594;9.938;2023-03-01T07:48:29;2.90;99.90
15452;DHT22;7827;53.594;9.938;2023-03-01T07:51:00;2.90;99.90
15452;DHT22;7827;53.594;9.938;2023-03-01T07:53:29;2.90;99.90
15452;DHT22;7827;53.594;9.938;2023-03-01T07:56:03;2.80;99.90
15452;DHT22;7827;53.594;9.938;2023-03-01T07:58:34;2.90;99.90
15452;DHT22;7827;53.594;9.938;2023-03-01T08:01:03;2.90;99.90
15452;DHT22;7827;53.594;9.938;2023-03-01T08:03:33;2.90;99.90
15452;DHT22;7827;53.594;9.938;2023-03-01T08:06:07;2.90;99.90
15452;DHT22;7827;53.594;9.938;2023-03-01T08:08:36;2.90;99.90
15452;DHT22;7827;53.594;9.938;2023-03-01T08:11:06;3.00;99.90
15452;DHT22;7827;53.594;9.938;2023-03-01T08:13:36;3.00;99.90
15452;DHT22;7827;53.594;9.938;2023-03-01T08:16:06;3.00;99.90
15452;DHT22;7827;53.594;9.938;2023-03-01T08:18:36;3.00;99.90
15452;DHT22;7827;53.594;9.938;2023-03-01T08:21:08;3.10;99.90
15452;DHT22;7827;53.594;9.938;2023-03-01T08:23:39;3.20;99.90
15452;DHT22;7827;53.594;9.938;2023-03-01T08:26:10;3.20;99.90
15452;DHT22;7827;53.594;9.938;2023-03-01T08:28:41;3.20;99.90
15452;DHT22;7827;53.594;9.938;2023-03-01T08:31:15;3.10;99.90
15452;DHT22;7827;53.594;9.938;2023-03-01T08:33:45;3.20;99.90
15452;DHT22;7827;53.594;9.938;2023-03-01T08:36:18;3.20;99.90
15452;DHT22;7827;53.594;9.938;2023-03-01T08:38:47;3.30;99.90
15452;DHT22;7827;53.594;9.938;2023-03-01T08:41:16;3.40;99.90
15452;DHT22;7827;53.594;9.938;2023-03-01T08:43:45;3.40;99.90
15452;DHT22;7827;53.594;9.938;2023-03-01T08:46:14;3.50;99.90
15452;DHT22;7827;53.594;9.938;2023-03-01T08:48:42;3.60;99.90
15452;DHT22;7827;53.594;9.938;2023-03-01T08:51:12;3.80;99.90
15452;DHT22;7827;53.594;9.938;2023-03-01T08:53:43;4.00;99.90
15452;DHT22;7827;53.594;9.938;2023-03-01T08:56:13;4.00;99.90
15452;DHT22;7827;53.594;9.938;2023-03-01T08:58:44;4.00;99.90
15452;DHT22;7827;53.594;9.938;2023-03-01T09:01:16;3.90;99.90
15452;DHT22;7827;53.594;9.938;2023-03-01T09:03:46;4.10;99.90
15452;DHT22;7827;53.594;9.938;2023-03-01T09:06:15;4.10;99.90
15452;DHT22;7827;53.594;9.938;2023-03-01T09:08:46;4.10;99.90
15452;DHT22;7827;53.594;9.938;2023-03-01T09:11:18;4.10;99.90
15452;DHT22;7827;53.594;9.938;2023-03-01T09:13:48;4.10;99.90
15452;DHT22;7827;53.594;9.938;2023-03-01T09:16:18;4.10;99.90
15452;DHT22;7827;53.594;9.938;2023-03-01T09:18:49;4.20;99.90
15452;DHT22;7827;53.594;9.938;2023-03-01T09:21:20;4.10;99.90
15452;DHT22;7827;53.594;9.938;2023-03-01T09:24:12;4.20;99.90
15452;DHT22;7827;53.594;9.938;2023-03-01T09:26:42;4.20;99.90
15452;DHT22;7827;53.594;9.938;2023-03-01T09:29:15;4.30;99.90
15452;DHT22;7827;53.594;9.938;2023-03-01T09:31:44;4.40;99.90
15452;DHT22;7827;53.594;9.938;2023-03-01T09:34:13;4.30;99.90
15452;DHT22;7827;53.594;9.938;2023-03-01T09:36:42;4.20;99.90
15452;DHT22;7827;53.594;9.938;2023-03-01T09:39:12;4.20;99.90
15452;DHT22;7827;53.594;9.938;2023-03-01T09:41:46;4.20;99.90
15452;DHT22;7827;53.594;9.938;2023-03-01T09:44:27;4.10;99.90
15452;DHT22;7827;53.594;9.938;2023-03-01T09:46:59;4.20;99.90
15452;DHT22;7827;53.594;9.938;2023-03-01T09:49:30;4.00;99.90
15452;DHT22;7827;53.594;9.938;2023-03-01T09:52:11;4.00;99.90
15452;DHT22;7827;53.594;9.938;2023-03-01T09:54:54;4.10;99.90
15452;DHT22;7827;53.594;9.938;2023-03-01T09:57:33;4.00;99.90
15452;DHT22;7827;53.594;9.938;2023-03-01T10:00:30;4.10;99.90
15452;DHT22;7827;53.594;9.938;2023-03-01T10:03:13;4.00;99.90
15452;DHT22;7827;53.594;9.938;2023-03-01T10:05:52;4.20;99.90
15452;DHT22;7827;53.594;9.938;2023-03-01T10:08:38;4.40;99.90
15452;DHT22;7827;53.594;9.938;2023-03-01T10:11:20;4.50;99.90
15452;DHT22;7827;53.594;9.938;2023-03-01T10:14:04;4.60;99.90
15452;DHT22;7827;53.594;9.938;2023-03-01T10:16:48;4.70;99.90
15452;DHT22;7827;53.594;9.938;2023-03-01T10:19:24;4.80;99.90
15452;DHT22;7827;53.594;9.938;2023-03-01T10:22:00;4.80;99.90
15452;DHT22;7827;53.594;9.938;2023-03-01T10:24:34;4.80;99.90
15452;DHT22;7827;53.594;9.938;2023-03-01T10:27:07;4.90;99.90
15452;DHT22;7827;53.594;9.938;2023-03-01T10:29:50;4.90;99.90
15452;DHT22;7827;53.594;9.938;2023-03-01T10:32:27;4.90;99.90
15452;DHT22;7827;53.594;9.938;2023-03-01T10:34:55;5.00;99.90
15452;DHT22;7827;53.594;9.938;2023-03-01T10:37:24;5.20;99.90
15452;DHT22;7827;53.594;9.938;2023-03-01T10:39:58;5.60;99.90
15452;DHT22;7827;53.594;9.938;2023-03-01T10:42:36;5.60;99.90
15452;DHT22;7827;53.594;9.938;2023-03-01T10:45:23;5.80;99.90
15452;DHT22;7827;53.594;9.938;2023-03-01T10:48:13;5.70;99.90
15452;DHT22;7827;53.594;9.938;2023-03-01T10:50:44;5.60;99.90
15452;DHT22;7827;53.594;9.938;2023-03-01T10:53:32;5.70;99.90
15452;DHT22;7827;53.594;9.938;2023-03-01T10:56:06;5.50;99.90
15452;DHT22;7827;53.594;9.938;2023-03-01T10:58:39;5.50;99.90
15452;DHT22;7827;53.594;9.938;2023-03-01T11:01:25;5.40;99.90
15452;DHT22;7827;53.594;9.938;2023-03-01T11:04:11;5.50;99.90
15452;DHT22;7827;53.594;9.938;2023-03-01T11:06:41;5.40;99.90
15452;DHT22;7827;53.594;9.938;2023-03-01T11:09:15;5.50;99.90
15452;DHT22;7827;53.594;9.938;2023-03-01T11:11:45;5.50;99.90
15452;DHT22;7827;53.594;9.938;2023-03-01T11:14:17;5.50;99.90
15452;DHT22;7827;53.594;9.938;2023-03-01T11:17:01;5.70;99.90
15452;DHT22;7827;53.594;9.938;2023-03-01T11:19:31;6.10;99.90
15452;DHT22;7827;53.594;9.938;2023-03-01T11:22:03;6.00;99.90
15452;DHT22;7827;53.594;9.938;2023-03-01T11:24:41;6.00;99.90
15452;DHT22;7827;53.594;9.938;2023-03-01T11:27:17;6.10;99.90
15452;DHT22;7827;53.594;9.938;2023-03-01T11:29:55;6.40;99.90
15452;DHT22;7827;53.594;9.938;2023-03-01T11:32:31;6.40;99.90
15452;DHT22;7827;53.594;9.938;2023-03-01T11:35:08;6.70;99.90
15452;DHT22;7827;53.594;9.938;2023-03-01T11:37:48;6.70;99.90
15452;DHT22;7827;53.594;9.938;2023-03-01T11:40:31;6.90;99.90
15452;DHT22;7827;53.594;9.938;2023-03-01T11:43:09;6.90;99.90
15452;DHT22;7827;53.594;9.938;2023-03-01T11:45:55;6.90;99.90
15452;DHT22;7827;53.594;9.938;2023-03-01T11:48:52;7.00;99.90
15452;DHT22;7827;53.594;9.938;2023-03-01T11:51:41;7.00;99.90
15452;DHT22;7827;53.594;9.938;2023-03-01T11:54:26;6.90;99.90
15452;DHT22;7827;53.594;9.938;2023-03-01T11:57:06;6.70;99.90
15452;DHT22;7827;53.594;9.938;2023-03-01T11:59:53;6.70;99.90
15452;DHT22;7827;53.594;9.938;2023-03-01T12:06:17;6.80;99.90
15452;DHT22;7827;53.594;9.938;2023-03-01T12:09:01;6.90;99.90
15452;DHT22;7827;53.594;9.938;2023-03-01T12:11:48;6.80;99.90
15452;DHT22;7827;53.594;9.938;2023-03-01T12:14:51;6.80;99.90
15452;DHT22;7827;53.594;9.938;2023-03-01T12:20:47;6.90;99.90
15452;DHT22;7827;53.594;9.938;2023-03-01T12:23:43;6.90;99.90
15452;DHT22;7827;53.594;9.938;2023-03-01T12:26:29;7.00;99.90
15452;DHT22;7827;53.594;9.938;2023-03-01T12:29:19;7.10;99.90
15452;DHT22;7827;53.594;9.938;2023-03-01T12:38:39;7.10;99.90
15452;DHT22;7827;53.594;9.938;2023-03-01T12:41:35;7.10;99.90
15452;DHT22;7827;53.594;9.938;2023-03-01T12:44:21;7.00;99.90
15452;DHT22;7827;53.594;9.938;2023-03-01T12:47:08;7.10;99.90
15452;DHT22;7827;53.594;9.938;2023-03-01T12:49:47;7.20;99.90
15452;DHT22;7827;53.594;9.938;2023-03-01T12:52:22;7.10;99.90
15452;DHT22;7827;53.594;9.938;2023-03-01T12:55:01;7.10;99.90
15452;DHT22;7827;53.594;9.938;2023-03-01T12:57:37;7.20;99.90
15452;DHT22;7827;53.594;9.938;2023-03-01T13:00:22;7.20;99.90
15452;DHT22;7827;53.594;9.938;2023-03-01T13:02:59;7.20;99.90
15452;DHT22;7827;53.594;9.938;2023-03-01T13:05:39;7.20;99.90
15452;DHT22;7827;53.594;9.938;2023-03-01T13:08:20;7.20;99.90
15452;DHT22;7827;53.594;9.938;2023-03-01T13:10:58;7.20;99.90
15452;DHT22;7827;53.594;9.938;2023-03-01T13:13:30;7.30;99.90
15452;DHT22;7827;53.594;9.938;2023-03-01T13:16:20;7.20;99.90
15452;DHT22;7827;53.594;9.938;2023-03-01T13:19:14;7.20;99.90
15452;DHT22;7827;53.594;9.938;2023-03-01T13:21:44;7.20;99.90
15452;DHT22;7827;53.594;9.938;2023-03-01T13:24:28;7.20;99.90
15452;DHT22;7827;53.594;9.938;2023-03-01T13:27:22;7.20;99.90
15452;DHT22;7827;53.594;9.938;2023-03-01T13:29:56;7.20;99.90
15452;DHT22;7827;53.594;9.938;2023-03-01T13:32:31;7.20;99.90
15452;DHT22;7827;53.594;9.938;2023-03-01T13:35:41;7.10;99.90
15452;DHT22;7827;53.594;9.938;2023-03-01T13:41:49;7.10;99.90
15452;DHT22;7827;53.594;9.938;2023-03-01T13:44:26;7.10;99.90
15452;DHT22;7827;53.594;9.938;2023-03-01T13:46:59;7.00;99.90
15452;DHT22;7827;53.594;9.938;2023-03-01T13:49:42;7.00;99.90
15452;DHT22;7827;53.594;9.938;2023-03-01T13:52:37;6.90;99.90
15452;DHT22;7827;53.594;9.938;2023-03-01T13:55:17;6.90;99.90
15452;DHT22;7827;53.594;9.938;2023-03-01T13:57:50;6.90;99.90
15452;DHT22;7827;53.594;9.938;2023-03-01T14:00:28;6.90;99.90
15452;DHT22;7827;53.594;9.938;2023-03-01T14:03:10;6.90;99.90
15452;DHT22;7827;53.594;9.938;2023-03-01T14:05:56;6.90;99.90
15452;DHT22;7827;53.594;9.938;2023-03-01T14:08:40;6.90;99.90
15452;DHT22;7827;53.594;9.938;2023-03-01T14:11:30;6.90;99.90
15452;DHT22;7827;53.594;9.938;2023-03-01T14:14:33;6.90;99.90
15452;DHT22;7827;53.594;9.938;2023-03-01T14:17:21;6.90;99.90
15452;DHT22;7827;53.594;9.938;2023-03-01T14:20:19;7.00;99.90
15452;DHT22;7827;53.594;9.938;2023-03-01T14:22:50;7.00;99.90
15452;DHT22;7827;53.594;9.938;2023-03-01T14:25:26;7.00;99.90
15452;DHT22;7827;53.594;9.938;2023-03-01T14:28:04;6.90;99.90
15452;DHT22;7827;53.594;9.938;2023-03-01T14:30:42;6.90;99.90
15452;DHT22;7827;53.594;9.938;2023-03-01T14:33:22;6.90;99.90
15452;DHT22;7827;53.594;9.938;2023-03-01T14:35:54;7.00;99.90
15452;DHT22;7827;53.594;9.938;2023-03-01T14:38:31;6.90;99.90
15452;DHT22;7827;53.594;9.938;2023-03-01T14:41:05;6.90;99.90
15452;DHT22;7827;53.594;9.938;2023-03-01T14:43:37;7.00;99.90
15452;DHT22;7827;53.594;9.938;2023-03-01T14:46:06;7.00;99.90
15452;DHT22;7827;53.594;9.938;2023-03-01T14:48:47;6.90;99.90
15452;DHT22;7827;53.594;9.938;2023-03-01T14:51:18;6.90;99.90
15452;DHT22;7827;53.594;9.938;2023-03-01T14:53:46;7.00;99.90
15452;DHT22;7827;53.594;9.938;2023-03-01T14:56:17;6.90;99.90
15452;DHT22;7827;53.594;9.938;2023-03-01T14:58:51;6.90;99.90
15452;DHT22;7827;53.594;9.938;2023-03-01T15:01:21;6.90;99.90
15452;DHT22;7827;53.594;9.938;2023-03-01T15:03:51;6.90;99.90
15452;DHT22;7827;53.594;9.938;2023-03-01T15:06:22;7.00;99.90
15452;DHT22;7827;53.594;9.938;2023-03-01T15:08:53;7.00;99.90
15452;DHT22;7827;53.594;9.938;2023-03-01T15:11:27;7.10;99.90
15452;DHT22;7827;53.594;9.938;2023-03-01T15:13:57;7.00;99.90
15452;DHT22;7827;53.594;9.938;2023-03-01T15:16:28;7.00;99.90
15452;DHT22;7827;53.594;9.938;2023-03-01T15:19:01;7.00;99.90
15452;DHT22;7827;53.594;9.938;2023-03-01T15:21:33;7.00;99.90
15452;DHT22;7827;53.594;9.938;2023-03-01T15:24:07;7.10;99.90
15452;DHT22;7827;53.594;9.938;2023-03-01T15:26:51;7.00;99.90
15452;DHT22;7827;53.594;9.938;2023-03-01T15:29:24;7.10;99.90
15452;DHT22;7827;53.594;9.938;2023-03-01T15:31:58;7.00;99.90
15452;DHT22;7827;53.594;9.938;2023-03-01T15:34:30;6.90;99.90
15452;DHT22;7827;53.594;9.938;2023-03-01T15:37:00;6.90;99.90
15452;DHT22;7827;53.594;9.938;2023-03-01T15:39:38;6.80;99.90
15452;DHT22;7827;53.594;9.938;2023-03-01T15:42:11;6.80;99.90
15452;DHT22;7827;53.594;9.938;2023-03-01T15:44:43;6.90;99.90
15452;DHT22;7827;53.594;9.938;2023-03-01T15:47:29;6.80;99.90
15452;DHT22;7827;53.594;9.938;2023-03-01T15:50:01;6.80;99.90
15452;DHT22;7827;53.594;9.938;2023-03-01T15:52:34;6.80;99.90
15452;DHT22;7827;53.594;9.938;2023-03-01T15:55:15;6.80;99.90
15452;DHT22;7827;53.594;9.938;2023-03-01T15:57:45;6.70;99.90
15452;DHT22;7827;53.594;9.938;2023-03-01T16:00:14;6.70;99.90
15452;DHT22;7827;53.594;9.938;2023-03-01T16:02:45;6.70;99.90
15452;DHT22;7827;53.594;9.938;2023-03-01T16:05:21;6.60;99.90
15452;DHT22;7827;53.594;9.938;2023-03-01T16:07:52;6.60;99.90
15452;DHT22;7827;53.594;9.938;2023-03-01T16:10:21;6.50;99.90
15452;DHT22;7827;53.594;9.938;2023-03-01T16:12:51;6.40;99.90
15452;DHT22;7827;53.594;9.938;2023-03-01T16:15:21;6.50;99.90
15452;DHT22;7827;53.594;9.938;2023-03-01T16:17:51;6.40;99.90
15452;DHT22;7827;53.594;9.938;2023-03-01T16:20:25;6.30;99.90
15452;DHT22;7827;53.594;9.938;2023-03-01T16:22:59;6.30;99.90
15452;DHT22;7827;53.594;9.938;2023-03-01T16:25:29;6.20;99.90
15452;DHT22;7827;53.594;9.938;2023-03-01T16:27:59;6.30;99.90
15452;DHT22;7827;53.594;9.938;2023-03-01T16:30:36;6.20;99.90
15452;DHT22;7827;53.594;9.938;2023-03-01T16:33:07;6.20;99.90
15452;DHT22;7827;53.594;9.938;2023-03-01T16:35:58;6.20;99.90
15452;DHT22;7827;53.594;9.938;2023-03-01T16:38:31;6.10;99.90
15452;DHT22;7827;53.594;9.938;2023-03-01T16:41:00;6.10;99.90
15452;DHT22;7827;53.594;9.938;2023-03-01T16:43:29;6.10;99.90
15452;DHT22;7827;53.594;9.938;2023-03-01T16:45:57;6.00;99.90
15452;DHT22;7827;53.594;9.938;2023-03-01T16:48:26;5.90;99.90
15452;DHT22;7827;53.594;9.938;2023-03-01T16:50:58;5.90;99.90
15452;DHT22;7827;53.594;9.938;2023-03-01T16:53:27;5.80;99.90
15452;DHT22;7827;53.594;9.938;2023-03-01T16:55:56;5.80;99.90
15452;DHT22;7827;53.594;9.938;2023-03-01T16:58:25;5.70;99.90
15452;DHT22;7827;53.594;9.938;2023-03-01T17:00:54;5.60;99.90